Accueil
METAR-TAF:

METAR-TAF

Aéroports :

Ponta Delgada, Açores, Portugal

Aéroport João Paulo II

latitude: 37-44N, longitude: 025-42W, altitude: 71 m

Observation

Le bulletin a été fait il y a 44 minutes, à 04:30 UTC
Vent 7 kt de ouest/sud-ouest
Température 19°C
Humidité 88%
Pression 1019 hPa
Visibilité 10 km ou plus
Nuages épars à une hauteur de 1400 ft

METAR: LPPD 260430Z 25007KT 9999 SCT014 19/17 Q1019

Heure: 05:14 (05:14 UTC)


TAF: absent

Observations et prévisions météorologiques de plus de 4000 aéroports (messages METAR et TAF).

Les stations disponibles sont représentées par des disques jaunes et rouges sur la carte.

Passer la souris dessus pour voir le nom de la station.

Cliquer dessus pour voir les observations et prévisions météorologiques.

Pour changer de carte: cliquez sur les boutons verts avec une croix noire pour zoomer, sur le bouton vert avec un tiret pour effectuer un zoom arrière, ou sur les flèches vertes pour les cartes adjacentes.


METAR-TAF: